Time;durP1;ratioP1;P1;durP2;ratioP2;P2;SDS_P1;SDS_P2;PMS_P1;PMS_P2;Temp;Humidity;BMP_temperature;BMP_pressure;BME280_temperature;BME280_humidity;BME280_pressure;Samples;Min_cycle;Max_cycle;Signal;HPM_P1;HPM_P2
2022/01/14 00:00:48;;;;;;;5.05;2.75;;;;;;;;;;4984981;28;20061;-74
2022/01/14 00:03:14;;;;;;;5.78;2.70;;;;;;;;;;5002324;28;20041;-72
2022/01/14 00:05:40;;;;;;;4.18;2.38;;;;;;;;;;5006117;28;20037;-72
2022/01/14 00:08:06;;;;;;;6.50;2.55;;;;;;;;;;5006196;28;20064;-73
2022/01/14 00:10:35;;;;;;;3.67;2.50;;;;;;;;;;5006197;28;20028;-73
2022/01/14 00:13:10;;;;;;;5.60;2.60;;;;;;;;;;5006228;28;20064;-72
2022/01/14 00:15:36;;;;;;;4.28;2.40;;;;;;;;;;5004512;28;20021;-75
2022/01/14 00:18:03;;;;;;;8.05;2.60;;;;;;;;;;4998289;28;20093;-73
2022/01/14 00:20:29;;;;;;;4.15;2.20;;;;;;;;;;4986627;28;20026;-73
2022/01/14 00:22:55;;;;;;;6.50;2.50;;;;;;;;;;4986085;28;20387;-74
2022/01/14 00:33:40;;;;;;;5.22;2.35;;;;;;;;;;4950445;28;20027;-72
2022/01/14 00:36:06;;;;;;;4.22;2.60;;;;;;;;;;5004986;28;20030;-72
2022/01/14 00:38:33;;;;;;;5.07;2.30;;;;;;;;;;5002933;28;20022;-73
2022/01/14 00:40:59;;;;;;;5.63;2.40;;;;;;;;;;5005485;28;20471;-72
2022/01/14 00:43:25;;;;;;;6.07;2.90;;;;;;;;;;5004463;28;20426;-72
2022/01/14 00:45:52;;;;;;;14.60;4.38;;;;;;;;;;5004508;28;20376;-73
2022/01/14 00:48:20;;;;;;;4.35;2.22;;;;;;;;;;5005522;28;20103;-72
2022/01/14 00:50:46;;;;;;;5.50;2.60;;;;;;;;;;5005656;28;20030;-72
2022/01/14 00:53:12;;;;;;;4.50;2.58;;;;;;;;;;5005617;28;20100;-72
2022/01/14 00:55:50;;;;;;;5.65;2.40;;;;;;;;;;5002897;28;20053;-72
2022/01/14 01:01:01;;;;;;;6.07;2.38;;;;;;;;;;5001650;28;20044;-74
2022/01/14 01:03:28;;;;;;;5.40;2.63;;;;;;;;;;4983342;28;20038;-74
2022/01/14 01:05:54;;;;;;;4.53;2.60;;;;;;;;;;4985448;28;20026;-73
2022/01/14 01:08:24;;;;;;;4.43;2.25;;;;;;;;;;4987379;28;20092;-74
2022/01/14 01:10:51;;;;;;;4.35;2.70;;;;;;;;;;4990245;28;20022;-73
2022/01/14 01:13:25;;;;;;;3.53;2.63;;;;;;;;;;4995858;28;20030;-73
2022/01/14 01:15:53;;;;;;;5.97;2.67;;;;;;;;;;4997152;28;20032;-72
2022/01/14 01:18:20;;;;;;;4.80;2.30;;;;;;;;;;4997046;28;20026;-73
2022/01/14 01:20:46;;;;;;;5.22;2.63;;;;;;;;;;4997574;28;20394;-73
2022/01/14 01:23:13;;;;;;;3.28;2.47;;;;;;;;;;4995248;28;20034;-72
2022/01/14 01:25:44;;;;;;;3.42;2.40;;;;;;;;;;4997195;28;20108;-73
2022/01/14 01:28:11;;;;;;;5.00;2.40;;;;;;;;;;4996072;28;20022;-72
2022/01/14 01:30:50;;;;;;;4.30;2.75;;;;;;;;;;4993636;28;20030;-72
2022/01/14 01:33:16;;;;;;;5.75;2.75;;;;;;;;;;4993821;28;20048;-72
2022/01/14 01:35:43;;;;;;;4.85;2.42;;;;;;;;;;4993142;28;20397;-73
2022/01/14 01:38:15;;;;;;;5.30;2.60;;;;;;;;;;4994230;28;20022;-72
2022/01/14 01:40:42;;;;;;;6.05;2.80;;;;;;;;;;4995776;28;20653;-73
2022/01/14 01:43:10;;;;;;;5.45;2.50;;;;;;;;;;4994620;28;20594;-73
2022/01/14 01:45:36;;;;;;;8.10;2.75;;;;;;;;;;4994268;28;20399;-71
2022/01/14 01:48:02;;;;;;;4.70;2.60;;;;;;;;;;4992697;28;20057;-71
2022/01/14 01:50:30;;;;;;;7.40;2.75;;;;;;;;;;4995725;28;20030;-72
2022/01/14 01:52:56;;;;;;;6.70;2.60;;;;;;;;;;4996894;28;20100;-71
2022/01/14 01:55:23;;;;;;;4.07;2.60;;;;;;;;;;4993723;28;20027;-71
2022/01/14 01:57:49;;;;;;;5.78;2.83;;;;;;;;;;4995782;28;20054;-71
2022/01/14 02:00:18;;;;;;;6.80;2.92;;;;;;;;;;5000525;28;20026;-71
2022/01/14 02:02:46;;;;;;;4.97;2.85;;;;;;;;;;4992919;28;20050;-71
2022/01/14 02:05:13;;;;;;;6.57;3.10;;;;;;;;;;4989661;28;20101;-71
2022/01/14 02:07:39;;;;;;;6.07;2.95;;;;;;;;;;4998760;28;20034;-71
2022/01/14 02:10:06;;;;;;;4.85;2.85;;;;;;;;;;4995431;28;20101;-71
2022/01/14 02:12:39;;;;;;;5.53;2.78;;;;;;;;;;4997986;28;20026;-72
2022/01/14 02:15:12;;;;;;;6.78;3.42;;;;;;;;;;4997229;28;20023;-71
2022/01/14 02:23:08;;;;;;;5.43;3.25;;;;;;;;;;4996834;28;20042;-71
2022/01/14 02:25:36;;;;;;;5.05;2.40;;;;;;;;;;4994567;28;20018;-73
2022/01/14 02:28:07;;;;;;;3.45;2.22;;;;;;;;;;4995109;28;20026;-71
2022/01/14 02:30:34;;;;;;;5.05;2.72;;;;;;;;;;4993901;28;20026;-71
2022/01/14 02:33:00;;;;;;;5.07;2.30;;;;;;;;;;4992482;28;20503;-72
2022/01/14 02:35:27;;;;;;;4.68;3.47;;;;;;;;;;4996068;28;20112;-71
2022/01/14 02:37:53;;;;;;;4.10;2.60;;;;;;;;;;4995671;28;20037;-71
2022/01/14 02:40:20;;;;;;;4.75;2.28;;;;;;;;;;4994684;28;20026;-71
2022/01/14 02:42:49;;;;;;;3.78;2.63;;;;;;;;;;4994698;28;20040;-71
2022/01/14 02:45:16;;;;;;;8.27;2.85;;;;;;;;;;4994681;28;20031;-71
2022/01/14 02:47:43;;;;;;;8.38;2.45;;;;;;;;;;4997731;28;20456;-71
2022/01/14 02:50:13;;;;;;;6.97;3.05;;;;;;;;;;4994403;28;20057;-71
2022/01/14 02:52:55;;;;;;;7.50;3.03;;;;;;;;;;4993013;28;20075;-72
2022/01/14 02:55:23;;;;;;;4.00;2.70;;;;;;;;;;4996843;28;20114;-72
2022/01/14 02:57:51;;;;;;;5.30;2.72;;;;;;;;;;4994302;28;20031;-72
2022/01/14 03:00:18;;;;;;;5.32;2.67;;;;;;;;;;4997988;28;20030;-71
2022/01/14 03:02:45;;;;;;;5.80;2.50;;;;;;;;;;4999377;28;20092;-72
2022/01/14 03:05:12;;;;;;;4.43;2.70;;;;;;;;;;4997852;28;20029;-71
2022/01/14 03:07:39;;;;;;;5.93;3.15;;;;;;;;;;4996734;28;20030;-71
2022/01/14 03:10:06;;;;;;;4.75;2.63;;;;;;;;;;4998018;28;20588;-70
2022/01/14 03:12:32;;;;;;;5.18;2.30;;;;;;;;;;4990328;28;20042;-70
2022/01/14 03:14:58;;;;;;;6.03;2.28;;;;;;;;;;4992443;28;20028;-70
2022/01/14 03:17:24;;;;;;;3.97;2.17;;;;;;;;;;4996024;28;20367;-70
2022/01/14 03:19:50;;;;;;;4.18;2.53;;;;;;;;;;4989218;28;20121;-70
2022/01/14 03:22:26;;;;;;;3.58;1.83;;;;;;;;;;4994081;28;20025;-71
2022/01/14 03:27:19;;;;;;;5.75;2.30;;;;;;;;;;4996784;28;20025;-70
2022/01/14 03:29:45;;;;;;;4.55;2.40;;;;;;;;;;4991896;28;20062;-70
2022/01/14 03:32:11;;;;;;;9.15;2.50;;;;;;;;;;4992814;28;20026;-70
2022/01/14 03:34:38;;;;;;;5.68;2.40;;;;;;;;;;4992960;28;20048;-70
2022/01/14 03:37:04;;;;;;;6.32;2.47;;;;;;;;;;4994846;28;20030;-70
2022/01/14 03:39:30;;;;;;;4.75;2.38;;;;;;;;;;4994322;28;20037;-71
2022/01/14 03:41:57;;;;;;;4.70;2.38;;;;;;;;;;4994026;28;20375;-71
2022/01/14 03:44:23;;;;;;;3.47;2.03;;;;;;;;;;4991805;28;20033;-70
2022/01/14 03:46:49;;;;;;;4.03;2.17;;;;;;;;;;4996339;28;20116;-70
2022/01/14 03:49:15;;;;;;;5.07;2.83;;;;;;;;;;4990210;28;20592;-70
2022/01/14 03:51:42;;;;;;;8.95;2.22;;;;;;;;;;4991707;28;20120;-70
2022/01/14 03:54:08;;;;;;;4.25;1.98;;;;;;;;;;4995710;28;20026;-70
2022/01/14 03:56:34;;;;;;;4.32;3.00;;;;;;;;;;4995844;28;20057;-70
2022/01/14 03:59:03;;;;;;;4.05;2.30;;;;;;;;;;4997759;28;20528;-70
2022/01/14 04:01:29;;;;;;;3.97;2.55;;;;;;;;;;4992701;28;20031;-70
2022/01/14 04:03:55;;;;;;;4.70;2.90;;;;;;;;;;4988063;28;20053;-70
2022/01/14 04:06:21;;;;;;;3.50;2.40;;;;;;;;;;4982568;28;20085;-70
2022/01/14 04:08:47;;;;;;;5.18;2.60;;;;;;;;;;4982595;28;20053;-70
2022/01/14 04:11:14;;;;;;;3.55;2.47;;;;;;;;;;4994339;28;20108;-70
2022/01/14 04:13:48;;;;;;;4.32;2.35;;;;;;;;;;5001171;28;20124;-71
2022/01/14 04:16:14;;;;;;;5.93;2.45;;;;;;;;;;5001783;28;20033;-70
2022/01/14 04:18:41;;;;;;;8.02;3.10;;;;;;;;;;5001861;28;20502;-70
2022/01/14 04:21:07;;;;;;;6.57;2.22;;;;;;;;;;5001935;28;20037;-70
2022/01/14 04:23:33;;;;;;;5.95;2.42;;;;;;;;;;5001040;28;20041;-70
2022/01/14 04:25:59;;;;;;;7.68;2.55;;;;;;;;;;4998610;28;20138;-70
2022/01/14 04:28:27;;;;;;;5.30;2.63;;;;;;;;;;5001463;28;20044;-70
2022/01/14 04:30:54;;;;;;;6.78;2.40;;;;;;;;;;5001691;28;20104;-71
2022/01/14 04:33:24;;;;;;;10.40;2.78;;;;;;;;;;5000065;28;20044;-71
2022/01/14 04:35:50;;;;;;;3.90;2.28;;;;;;;;;;5001345;28;20041;-70
2022/01/14 04:38:17;;;;;;;4.13;2.47;;;;;;;;;;4996585;28;20034;-70
2022/01/14 04:40:43;;;;;;;6.97;2.85;;;;;;;;;;4981649;28;20023;-70
2022/01/14 04:43:10;;;;;;;4.75;2.85;;;;;;;;;;4980004;28;20097;-70
2022/01/14 04:48:04;;;;;;;5.45;2.65;;;;;;;;;;4980901;28;20058;-72
2022/01/14 04:50:30;;;;;;;4.82;2.75;;;;;;;;;;4981505;28;20792;-70
2022/01/14 04:52:56;;;;;;;4.38;2.45;;;;;;;;;;4982339;28;20034;-70
2022/01/14 04:55:24;;;;;;;4.53;2.60;;;;;;;;;;4981804;28;20037;-71
2022/01/14 04:57:51;;;;;;;4.65;2.80;;;;;;;;;;4979472;28;20022;-70
2022/01/14 05:00:19;;;;;;;5.72;2.53;;;;;;;;;;4997149;28;20061;-71
2022/01/14 05:02:45;;;;;;;6.40;2.80;;;;;;;;;;5001005;28;20042;-70
2022/01/14 05:05:11;;;;;;;4.95;2.53;;;;;;;;;;5001111;28;20983;-71
2022/01/14 05:07:38;;;;;;;4.82;2.40;;;;;;;;;;5000520;28;20041;-71
2022/01/14 05:12:34;;;;;;;5.13;2.83;;;;;;;;;;5000813;28;20038;-70
2022/01/14 05:15:02;;;;;;;3.80;2.47;;;;;;;;;;5000959;28;20032;-70
2022/01/14 05:17:28;;;;;;;6.80;3.17;;;;;;;;;;5000373;28;20679;-70
2022/01/14 05:19:58;;;;;;;5.28;2.50;;;;;;;;;;5000285;28;20026;-70
2022/01/14 05:22:27;;;;;;;5.10;2.47;;;;;;;;;;4999332;28;20589;-71
2022/01/14 05:24:53;;;;;;;6.53;2.70;;;;;;;;;;4997195;28;20030;-70
2022/01/14 05:27:20;;;;;;;4.43;3.05;;;;;;;;;;5000540;28;20034;-70
2022/01/14 05:29:46;;;;;;;4.03;2.20;;;;;;;;;;5000590;28;20026;-70
2022/01/14 05:32:14;;;;;;;7.03;3.30;;;;;;;;;;4999233;28;20049;-71
2022/01/14 05:34:41;;;;;;;5.78;2.67;;;;;;;;;;5000304;28;20092;-71
2022/01/14 05:37:07;;;;;;;8.13;3.55;;;;;;;;;;4998628;28;20030;-72
2022/01/14 05:39:34;;;;;;;4.07;2.72;;;;;;;;;;4999795;28;20037;-70
2022/01/14 05:42:00;;;;;;;5.22;2.75;;;;;;;;;;4998986;28;20033;-70
2022/01/14 05:44:27;;;;;;;3.30;2.25;;;;;;;;;;5000802;28;20061;-70
2022/01/14 05:46:54;;;;;;;5.50;2.60;;;;;;;;;;4999748;28;20050;-70
2022/01/14 05:49:20;;;;;;;5.75;2.47;;;;;;;;;;5000400;28;20029;-70
2022/01/14 05:51:47;;;;;;;4.88;2.80;;;;;;;;;;4984637;28;20037;-71
2022/01/14 05:54:13;;;;;;;7.28;3.08;;;;;;;;;;4981321;28;20053;-71
2022/01/14 05:56:39;;;;;;;4.15;2.40;;;;;;;;;;4979788;28;20596;-70
2022/01/14 05:59:05;;;;;;;6.43;3.05;;;;;;;;;;4986401;28;20120;-70
2022/01/14 06:01:32;;;;;;;5.07;2.70;;;;;;;;;;5000134;28;20022;-70
2022/01/14 06:03:58;;;;;;;6.65;3.00;;;;;;;;;;4998542;28;20045;-71
2022/01/14 06:06:24;;;;;;;7.95;3.03;;;;;;;;;;4980643;28;20042;-71
2022/01/14 06:08:51;;;;;;;8.43;3.00;;;;;;;;;;4980002;28;20038;-70
2022/01/14 06:11:17;;;;;;;6.90;2.97;;;;;;;;;;4980045;28;20661;-71
2022/01/14 06:13:44;;;;;;;7.28;2.85;;;;;;;;;;4980374;28;20054;-70
2022/01/14 06:16:10;;;;;;;4.70;2.50;;;;;;;;;;4978823;28;20033;-70
2022/01/14 06:18:36;;;;;;;6.15;2.50;;;;;;;;;;4984290;28;20045;-70
2022/01/14 06:21:02;;;;;;;6.00;2.65;;;;;;;;;;4999989;28;20041;-71
2022/01/14 06:23:28;;;;;;;5.68;2.15;;;;;;;;;;5000076;28;20046;-71
2022/01/14 06:25:54;;;;;;;5.15;2.42;;;;;;;;;;4997994;28;20351;-70
2022/01/14 06:28:21;;;;;;;5.32;3.13;;;;;;;;;;4998342;28;20061;-70
2022/01/14 06:30:47;;;;;;;4.80;2.70;;;;;;;;;;4992585;28;20084;-70
2022/01/14 06:33:13;;;;;;;4.97;2.30;;;;;;;;;;4980164;28;20530;-70
2022/01/14 06:35:39;;;;;;;6.70;3.25;;;;;;;;;;4982882;28;20034;-70
2022/01/14 06:38:05;;;;;;;8.32;2.47;;;;;;;;;;4982738;28;20045;-70
2022/01/14 06:40:32;;;;;;;4.40;2.42;;;;;;;;;;4983898;28;20471;-70
2022/01/14 06:42:58;;;;;;;5.50;2.58;;;;;;;;;;4984039;28;20046;-70
2022/01/14 06:45:24;;;;;;;5.25;2.78;;;;;;;;;;4983276;28;20609;-70
2022/01/14 06:47:51;;;;;;;4.95;2.47;;;;;;;;;;4998038;28;20049;-70
2022/01/14 06:50:17;;;;;;;4.25;2.30;;;;;;;;;;5004851;28;20030;-71
2022/01/14 06:52:44;;;;;;;4.57;2.50;;;;;;;;;;5005176;28;20034;-70
2022/01/14 06:55:10;;;;;;;3.60;2.20;;;;;;;;;;5005771;28;20084;-71
2022/01/14 06:57:36;;;;;;;5.38;2.55;;;;;;;;;;5002185;28;20101;-71
2022/01/14 07:00:10;;;;;;;4.05;2.40;;;;;;;;;;5005133;28;20113;-71
2022/01/14 07:02:36;;;;;;;3.25;2.03;;;;;;;;;;5005261;28;20070;-70
2022/01/14 07:05:03;;;;;;;4.88;2.35;;;;;;;;;;4998857;28;20015;-71
2022/01/14 07:07:29;;;;;;;4.53;2.35;;;;;;;;;;4985964;28;20038;-71
2022/01/14 07:09:58;;;;;;;5.82;2.42;;;;;;;;;;4984175;28;20018;-71
2022/01/14 07:12:36;;;;;;;7.75;3.90;;;;;;;;;;4984546;28;20085;-70
2022/01/14 07:15:04;;;;;;;7.13;2.40;;;;;;;;;;4988220;28;20029;-77
2022/01/14 07:17:30;;;;;;;4.35;2.95;;;;;;;;;;5001648;28;20022;-71
2022/01/14 07:20:00;;;;;;;8.20;2.85;;;;;;;;;;4983051;28;20121;-76
2022/01/14 07:22:26;;;;;;;4.93;2.75;;;;;;;;;;4985082;28;20033;-73
2022/01/14 07:24:52;;;;;;;5.80;2.83;;;;;;;;;;4985974;28;20018;-73
2022/01/14 07:27:18;;;;;;;4.35;2.90;;;;;;;;;;4984961;28;20022;-72
2022/01/14 07:29:45;;;;;;;5.57;3.45;;;;;;;;;;4984896;28;20167;-71
2022/01/14 07:32:11;;;;;;;10.02;3.08;;;;;;;;;;4985448;28;20534;-71
2022/01/14 07:34:37;;;;;;;5.50;2.40;;;;;;;;;;4998528;28;20041;-71
2022/01/14 07:37:03;;;;;;;5.60;2.33;;;;;;;;;;5002828;28;20037;-71
2022/01/14 07:39:29;;;;;;;5.38;2.28;;;;;;;;;;5002504;28;20030;-71
2022/01/14 07:41:55;;;;;;;4.68;2.53;;;;;;;;;;5002461;28;20029;-71
2022/01/14 07:44:22;;;;;;;3.83;1.92;;;;;;;;;;5001916;28;20033;-71
2022/01/14 07:46:48;;;;;;;8.52;2.70;;;;;;;;;;5000985;28;20049;-71
2022/01/14 07:49:15;;;;;;;6.13;2.67;;;;;;;;;;5000489;28;20034;-71
2022/01/14 07:51:41;;;;;;;4.50;2.08;;;;;;;;;;5002139;28;20022;-71
2022/01/14 07:54:08;;;;;;;4.88;1.90;;;;;;;;;;5002214;28;20021;-71
2022/01/14 07:56:35;;;;;;;5.40;2.35;;;;;;;;;;5001995;28;20026;-71
2022/01/14 07:59:01;;;;;;;3.53;1.98;;;;;;;;;;5000182;28;20029;-70
2022/01/14 08:01:27;;;;;;;3.20;1.90;;;;;;;;;;5002227;28;20129;-71
2022/01/14 08:03:54;;;;;;;3.13;1.67;;;;;;;;;;5001885;28;20418;-70
2022/01/14 08:06:22;;;;;;;3.75;2.00;;;;;;;;;;5001850;28;20034;-71
2022/01/14 08:08:49;;;;;;;5.25;1.92;;;;;;;;;;5001720;28;20025;-71
2022/01/14 08:11:15;;;;;;;5.82;2.00;;;;;;;;;;4999691;28;20463;-72
2022/01/14 08:13:41;;;;;;;3.45;2.20;;;;;;;;;;5001185;28;20097;-73
2022/01/14 08:16:07;;;;;;;3.78;1.60;;;;;;;;;;4995364;28;20030;-71
2022/01/14 08:18:33;;;;;;;5.75;2.40;;;;;;;;;;4982258;28;20034;-71
2022/01/14 08:21:00;;;;;;;2.75;1.75;;;;;;;;;;4982122;28;20066;-72
2022/01/14 08:23:26;;;;;;;4.00;1.75;;;;;;;;;;4980394;28;20217;-71
2022/01/14 08:25:53;;;;;;;2.47;1.50;;;;;;;;;;4982325;28;20034;-71
2022/01/14 08:28:22;;;;;;;4.30;1.98;;;;;;;;;;4982223;28;20022;-71
2022/01/14 08:30:48;;;;;;;4.72;1.83;;;;;;;;;;4981894;28;20022;-71
2022/01/14 08:33:14;;;;;;;4.00;2.00;;;;;;;;;;4989228;28;20092;-71
2022/01/14 08:35:41;;;;;;;6.57;2.20;;;;;;;;;;5001026;28;20084;-71
2022/01/14 08:38:07;;;;;;;9.30;2.80;;;;;;;;;;5000038;28;20043;-71
2022/01/14 08:40:34;;;;;;;3.50;1.92;;;;;;;;;;5001396;28;20029;-71
2022/01/14 08:43:00;;;;;;;4.68;2.25;;;;;;;;;;5001317;28;20561;-71
2022/01/14 08:45:26;;;;;;;5.18;2.22;;;;;;;;;;4999912;28;20037;-71
2022/01/14 08:47:53;;;;;;;6.45;2.83;;;;;;;;;;4998849;28;20061;-71
2022/01/14 08:50:20;;;;;;;4.75;2.53;;;;;;;;;;4999270;28;21006;-72
2022/01/14 08:52:46;;;;;;;3.70;2.20;;;;;;;;;;5001146;28;20040;-72
2022/01/14 08:55:15;;;;;;;6.75;2.47;;;;;;;;;;4998519;28;20029;-71
2022/01/14 08:57:41;;;;;;;4.30;1.90;;;;;;;;;;4992988;28;20030;-72
2022/01/14 09:00:07;;;;;;;3.90;1.75;;;;;;;;;;4982252;28;20387;-73
2022/01/14 09:02:34;;;;;;;4.30;1.80;;;;;;;;;;4982333;28;20070;-72
2022/01/14 09:05:00;;;;;;;3.88;1.98;;;;;;;;;;4992286;28;20022;-73
2022/01/14 09:07:28;;;;;;;3.50;1.92;;;;;;;;;;4999142;28;20033;-73
2022/01/14 09:09:54;;;;;;;3.92;2.10;;;;;;;;;;4992994;28;20513;-72
2022/01/14 09:12:21;;;;;;;2.88;1.67;;;;;;;;;;4986825;28;20062;-73
2022/01/14 09:14:47;;;;;;;3.53;1.60;;;;;;;;;;4986572;28;20026;-73
2022/01/14 09:17:13;;;;;;;11.02;1.80;;;;;;;;;;4989707;28;20025;-74
2022/01/14 09:19:40;;;;;;;4.68;1.60;;;;;;;;;;4988193;28;20529;-73
2022/01/14 09:22:07;;;;;;;4.22;1.80;;;;;;;;;;4985913;28;20038;-73
2022/01/14 09:24:35;;;;;;;2.90;1.85;;;;;;;;;;4988655;28;20489;-74
2022/01/14 09:27:02;;;;;;;4.25;1.65;;;;;;;;;;4988190;28;20581;-72
2022/01/14 09:29:28;;;;;;;5.05;1.88;;;;;;;;;;4987487;28;20023;-75
2022/01/14 09:31:54;;;;;;;3.67;1.95;;;;;;;;;;4988261;28;20705;-73
2022/01/14 09:34:21;;;;;;;5.65;1.80;;;;;;;;;;4989053;28;20034;-72
2022/01/14 09:36:47;;;;;;;3.25;2.05;;;;;;;;;;4988629;28;20036;-72
2022/01/14 09:39:13;;;;;;;2.58;1.52;;;;;;;;;;4986304;28;20022;-73
2022/01/14 09:41:39;;;;;;;3.90;2.20;;;;;;;;;;4988946;28;20026;-76
2022/01/14 09:44:06;;;;;;;4.72;1.95;;;;;;;;;;4987352;28;20584;-76
2022/01/14 09:46:32;;;;;;;3.50;2.30;;;;;;;;;;4985889;28;20101;-73
2022/01/14 09:48:58;;;;;;;3.75;1.63;;;;;;;;;;4981020;28;20598;-74
2022/01/14 09:51:25;;;;;;;4.40;1.90;;;;;;;;;;4988092;28;20490;-77
2022/01/14 09:53:51;;;;;;;2.97;1.92;;;;;;;;;;4987590;28;20061;-73
2022/01/14 09:56:18;;;;;;;4.40;1.92;;;;;;;;;;4991022;28;20030;-73
2022/01/14 09:58:49;;;;;;;3.85;1.85;;;;;;;;;;4998249;28;20030;-74
2022/01/14 10:01:17;;;;;;;3.33;2.15;;;;;;;;;;4993952;28;20028;-75
2022/01/14 10:03:54;;;;;;;3.20;1.80;;;;;;;;;;4981676;28;20041;-75
2022/01/14 10:06:39;;;;;;;5.13;2.05;;;;;;;;;;4997214;28;20032;-73
2022/01/14 10:09:11;;;;;;;8.43;2.00;;;;;;;;;;4984593;28;20157;-75
2022/01/14 10:11:37;;;;;;;;;;;;;;;;;;4985275;28;20446;-74
2022/01/14 10:14:04;;;;;;;3.25;1.90;;;;;;;;;;4996030;28;19909;-76
2022/01/14 10:16:31;;;;;;;3.95;1.60;;;;;;;;;;5001965;28;20025;-73
2022/01/14 10:18:57;;;;;;;3.88;1.75;;;;;;;;;;4998902;28;20032;-74
2022/01/14 10:21:30;;;;;;;6.00;1.60;;;;;;;;;;4991332;28;20043;-73
2022/01/14 10:23:56;;;;;;;7.75;2.10;;;;;;;;;;4991079;28;20118;-73
2022/01/14 10:26:23;;;;;;;4.13;1.83;;;;;;;;;;4997015;28;20041;-74
2022/01/14 10:29:01;;;;;;;5.15;2.40;;;;;;;;;;4986145;28;20041;-75
2022/01/14 10:31:34;;;;;;;3.78;2.08;;;;;;;;;;4996470;28;20097;-73
2022/01/14 10:34:07;;;;;;;5.20;1.88;;;;;;;;;;4991109;28;20478;-73
2022/01/14 10:36:33;;;;;;;4.13;1.80;;;;;;;;;;4994504;28;20046;-73
2022/01/14 10:38:59;;;;;;;4.10;2.08;;;;;;;;;;4996555;28;20022;-73
2022/01/14 10:41:29;;;;;;;6.25;2.35;;;;;;;;;;4992776;28;20026;-73
2022/01/14 10:43:55;;;;;;;4.00;2.20;;;;;;;;;;4994048;28;20040;-76
2022/01/14 10:46:28;;;;;;;16.05;8.07;;;;;;;;;;4992942;28;20071;-73
2022/01/14 10:48:55;;;;;;;4.25;2.17;;;;;;;;;;4991770;28;20018;-78
2022/01/14 10:51:21;;;;;;;7.28;1.90;;;;;;;;;;4992894;28;20026;-74
2022/01/14 10:53:51;;;;;;;4.47;1.70;;;;;;;;;;4992693;28;20026;-74
2022/01/14 10:56:23;;;;;;;3.22;1.55;;;;;;;;;;4992293;28;20029;-73
2022/01/14 10:58:56;;;;;;;6.20;2.00;;;;;;;;;;5000520;28;20048;-73
2022/01/14 11:01:24;;;;;;;5.40;2.45;;;;;;;;;;4999531;28;20037;-74
2022/01/14 11:03:57;;;;;;;8.25;2.60;;;;;;;;;;4992284;28;20583;-73
2022/01/14 11:06:29;;;;;;;6.15;2.22;;;;;;;;;;4991488;28;20470;-73
2022/01/14 11:09:05;;;;;;;4.32;2.78;;;;;;;;;;4991031;28;20028;-73
2022/01/14 11:11:34;;;;;;;2.97;2.10;;;;;;;;;;4988631;28;20041;-73
2022/01/14 11:14:01;;;;;;;4.43;2.05;;;;;;;;;;4982233;28;20030;-73
2022/01/14 11:16:27;;;;;;;3.95;1.80;;;;;;;;;;4979940;28;20034;-73
2022/01/14 11:18:57;;;;;;;5.38;2.17;;;;;;;;;;4990206;28;20044;-73
2022/01/14 11:24:13;;;;;;;3.83;2.35;;;;;;;;;;4998575;28;20105;-74
2022/01/14 11:26:40;;;;;;;4.43;1.92;;;;;;;;;;4991244;28;20049;-73
2022/01/14 11:29:09;;;;;;;3.40;1.80;;;;;;;;;;5000476;28;20030;-74
2022/01/14 11:31:37;;;;;;;2.70;1.73;;;;;;;;;;5001618;28;20029;-72
2022/01/14 11:34:04;;;;;;;3.78;1.88;;;;;;;;;;4992221;28;20049;-73
2022/01/14 11:36:57;;;;;;;3.13;1.67;;;;;;;;;;4991912;28;20575;-73
2022/01/14 11:39:23;;;;;;;;;;;;;;;;;;5000579;28;20052;-73
2022/01/14 11:41:51;;;;;;;3.20;1.50;;;;;;;;;;5001498;28;19948;-73
2022/01/14 11:44:35;;;;;;;4.82;1.92;;;;;;;;;;5000303;28;20041;-74
2022/01/14 11:47:02;;;;;;;4.85;2.30;;;;;;;;;;5001327;28;20058;-73
2022/01/14 11:49:35;;;;;;;4.32;2.00;;;;;;;;;;5001599;28;20550;-73
2022/01/14 11:52:03;;;;;;;3.80;1.90;;;;;;;;;;5001083;28;20106;-73
2022/01/14 11:54:40;;;;;;;5.13;2.05;;;;;;;;;;4999933;28;20499;-73
2022/01/14 11:57:06;;;;;;;3.72;2.10;;;;;;;;;;5000516;28;20647;-73
2022/01/14 11:59:32;;;;;;;6.03;2.55;;;;;;;;;;5000862;28;20032;-74
2022/01/14 12:01:59;;;;;;;3.90;1.70;;;;;;;;;;5003063;28;20087;-75
2022/01/14 12:04:50;;;;;;;3.00;1.80;;;;;;;;;;5005664;28;20592;-76
2022/01/14 12:07:17;;;;;;;3.65;1.70;;;;;;;;;;5002088;28;20026;-73
2022/01/14 12:10:12;;;;;;;5.15;1.98;;;;;;;;;;5000987;28;20099;-74
2022/01/14 12:12:38;;;;;;;4.95;2.08;;;;;;;;;;4988648;28;20417;-73
2022/01/14 12:15:05;;;;;;;3.42;1.73;;;;;;;;;;5001142;28;20091;-73
2022/01/14 12:17:37;;;;;;;9.93;2.03;;;;;;;;;;5000846;28;20088;-73
2022/01/14 12:20:03;;;;;;;;;;;;;;;;;;5001311;28;20029;-74
2022/01/14 12:22:29;;;;;;;4.00;2.00;;;;;;;;;;4998111;28;19924;-73
2022/01/14 12:24:58;;;;;;;2.65;1.77;;;;;;;;;;5000681;28;20026;-72
2022/01/14 12:27:25;;;;;;;4.85;2.13;;;;;;;;;;4985932;28;20026;-74
2022/01/14 12:30:02;;;;;;;3.33;1.85;;;;;;;;;;4981311;28;20053;-73
2022/01/14 12:32:31;;;;;;;3.97;1.80;;;;;;;;;;4980708;28;20499;-73
2022/01/14 12:34:57;;;;;;;3.22;2.10;;;;;;;;;;5001021;28;20032;-73
2022/01/14 12:37:23;;;;;;;5.57;1.85;;;;;;;;;;5000315;28;20045;-72
2022/01/14 12:39:49;;;;;;;3.33;2.05;;;;;;;;;;4999012;28;20820;-72
2022/01/14 12:42:18;;;;;;;5.28;2.05;;;;;;;;;;5000430;28;20787;-72
2022/01/14 12:44:46;;;;;;;3.72;1.77;;;;;;;;;;4999216;28;20117;-72
2022/01/14 12:47:19;;;;;;;4.25;2.13;;;;;;;;;;5000064;28;20050;-72
2022/01/14 12:49:46;;;;;;;3.00;1.80;;;;;;;;;;5000441;28;20026;-72
2022/01/14 12:52:15;;;;;;;3.22;1.90;;;;;;;;;;4998941;28;20079;-72
2022/01/14 12:54:42;;;;;;;6.18;2.38;;;;;;;;;;4991388;28;20483;-72
2022/01/14 12:57:09;;;;;;;4.32;1.88;;;;;;;;;;4982237;28;20113;-72
2022/01/14 12:59:42;;;;;;;4.70;1.98;;;;;;;;;;4979311;28;20072;-73
2022/01/14 13:02:09;;;;;;;3.83;2.15;;;;;;;;;;4980613;28;20029;-72
2022/01/14 13:04:35;;;;;;;2.72;1.80;;;;;;;;;;4980516;28;20093;-73
2022/01/14 13:07:03;;;;;;;3.78;2.17;;;;;;;;;;4979204;28;20030;-73
2022/01/14 13:09:30;;;;;;;4.28;2.08;;;;;;;;;;4980559;28;20117;-72
2022/01/14 13:11:59;;;;;;;4.20;1.95;;;;;;;;;;4978972;28;20105;-72
2022/01/14 13:14:37;;;;;;;8.18;2.22;;;;;;;;;;4979639;28;20124;-72
2022/01/14 13:17:08;;;;;;;4.53;2.10;;;;;;;;;;4980162;28;20037;-73
2022/01/14 13:19:35;;;;;;;6.88;1.90;;;;;;;;;;4980828;28;20034;-72
2022/01/14 13:22:07;;;;;;;5.35;1.92;;;;;;;;;;4985278;28;20040;-73
2022/01/14 13:24:35;;;;;;;4.40;2.53;;;;;;;;;;4998799;28;20133;-73
2022/01/14 13:27:02;;;;;;;2.90;1.90;;;;;;;;;;4997889;28;20018;-73
2022/01/14 13:29:34;;;;;;;5.07;2.33;;;;;;;;;;4995516;28;20041;-73
2022/01/14 13:32:01;;;;;;;4.05;1.90;;;;;;;;;;4989254;28;20030;-73
2022/01/14 13:34:27;;;;;;;4.28;1.88;;;;;;;;;;4997754;28;20033;-73
2022/01/14 13:36:53;;;;;;;3.88;2.28;;;;;;;;;;4985092;28;20034;-72
2022/01/14 13:39:22;;;;;;;4.70;2.10;;;;;;;;;;4994450;28;20040;-72
2022/01/14 13:41:49;;;;;;;5.00;2.30;;;;;;;;;;4991774;28;20026;-72
2022/01/14 13:44:19;;;;;;;2.88;2.10;;;;;;;;;;4983898;28;20983;-73
2022/01/14 13:46:46;;;;;;;4.25;2.30;;;;;;;;;;4988852;28;20034;-73
2022/01/14 13:49:20;;;;;;;4.70;2.20;;;;;;;;;;4982505;28;20027;-72
2022/01/14 13:51:47;;;;;;;2.95;1.70;;;;;;;;;;4997281;28;20034;-73
2022/01/14 13:54:17;;;;;;;5.30;2.30;;;;;;;;;;4998224;28;20517;-72
2022/01/14 13:56:43;;;;;;;4.82;2.13;;;;;;;;;;4996778;28;20053;-73
2022/01/14 13:59:09;;;;;;;3.75;2.47;;;;;;;;;;4979096;28;20133;-72
2022/01/14 14:01:36;;;;;;;4.45;2.13;;;;;;;;;;4980917;28;20026;-73
2022/01/14 14:04:08;;;;;;;4.22;1.80;;;;;;;;;;4991535;28;20038;-73
2022/01/14 14:06:40;;;;;;;4.72;2.53;;;;;;;;;;4987785;28;20018;-72
2022/01/14 14:09:25;;;;;;;5.85;2.05;;;;;;;;;;4999836;28;20113;-72
2022/01/14 14:12:11;;;;;;;5.97;2.47;;;;;;;;;;4979232;28;20032;-72
2022/01/14 14:17:22;;;;;;;5.20;2.15;;;;;;;;;;4979581;28;20088;-71
2022/01/14 14:19:49;;;;;;;4.10;2.17;;;;;;;;;;4979978;28;20111;-72
2022/01/14 14:22:20;;;;;;;5.75;2.15;;;;;;;;;;4977763;28;20557;-72
2022/01/14 14:25:11;;;;;;;7.35;2.17;;;;;;;;;;4979920;28;20874;-72
2022/01/14 14:27:40;;;;;;;3.47;1.70;;;;;;;;;;4979940;28;20811;-71
2022/01/14 14:30:13;;;;;;;3.97;1.70;;;;;;;;;;4980292;28;20034;-71
2022/01/14 14:32:40;;;;;;;4.93;1.70;;;;;;;;;;4981933;28;20431;-71
2022/01/14 14:35:13;;;;;;;4.32;1.88;;;;;;;;;;4998014;28;20763;-72
2022/01/14 14:37:45;;;;;;;;;;;;;;;;;;4996804;28;20113;-71
2022/01/14 14:40:15;;;;;;;;;;;;;;;;;;4988131;28;19925;-72
2022/01/14 14:42:41;;;;;;;6.78;2.03;;;;;;;;;;4979800;28;20305;-71
2022/01/14 14:45:08;;;;;;;5.53;1.88;;;;;;;;;;4981149;28;20023;-71
2022/01/14 14:47:34;;;;;;;4.25;2.35;;;;;;;;;;4991094;28;20042;-72
2022/01/14 14:50:01;;;;;;;3.10;1.90;;;;;;;;;;4987358;28;20022;-72
2022/01/14 14:52:27;;;;;;;3.53;2.13;;;;;;;;;;4982816;28;20045;-72
2022/01/14 14:54:54;;;;;;;4.25;1.90;;;;;;;;;;4990709;28;20037;-72
2022/01/14 14:57:20;;;;;;;3.55;1.88;;;;;;;;;;5001018;28;20450;-72
2022/01/14 14:59:47;;;;;;;3.58;1.80;;;;;;;;;;5001040;28;20033;-73
2022/01/14 15:02:14;;;;;;;6.00;2.42;;;;;;;;;;5002431;28;20052;-73
2022/01/14 15:04:41;;;;;;;4.45;1.90;;;;;;;;;;5002536;28;20021;-72
2022/01/14 15:07:07;;;;;;;3.20;1.73;;;;;;;;;;5001797;28;20025;-72
2022/01/14 15:09:33;;;;;;;4.20;1.90;;;;;;;;;;5001310;28;20037;-72
2022/01/14 15:11:59;;;;;;;3.97;1.80;;;;;;;;;;5000247;28;20032;-72
2022/01/14 15:14:27;;;;;;;4.95;2.15;;;;;;;;;;4992370;28;20382;-72
2022/01/14 15:19:28;;;;;;;4.40;2.03;;;;;;;;;;4991430;28;20054;-72